sensor_id;sensor_type;location;lat;lon;timestamp;pressure;altitude;pressure_sealevel;temperature;humidity
7333;BME280;3707;43.618;25.342;2023-08-08T00:00:03;99822.84;;;19.30;100.00
7333;BME280;3707;43.618;25.342;2023-08-08T00:02:30;99905.09;;;19.73;100.00
7333;BME280;3707;43.618;25.342;2023-08-08T00:04:58;99907.16;;;19.61;100.00
7333;BME280;3707;43.618;25.342;2023-08-08T00:07:25;99910.97;;;19.48;100.00
7333;BME280;3707;43.618;25.342;2023-08-08T00:09:55;99919.13;;;19.36;100.00
7333;BME280;3707;43.618;25.342;2023-08-08T00:12:22;99927.75;;;19.44;100.00
7333;BME280;3707;43.618;25.342;2023-08-08T00:14:49;99933.00;;;19.44;100.00
7333;BME280;3707;43.618;25.342;2023-08-08T00:17:15;99928.94;;;19.29;100.00
7333;BME280;3707;43.618;25.342;2023-08-08T00:19:42;99910.69;;;19.21;100.00
7333;BME280;3707;43.618;25.342;2023-08-08T00:22:10;99888.56;;;19.31;100.00
7333;BME280;3707;43.618;25.342;2023-08-08T00:24:37;99881.72;;;19.24;100.00
7333;BME280;3707;43.618;25.342;2023-08-08T00:27:04;99893.59;;;19.02;100.00
7333;BME280;3707;43.618;25.342;2023-08-08T00:29:31;99876.16;;;18.98;100.00
7333;BME280;3707;43.618;25.342;2023-08-08T00:31:58;99877.13;;;18.94;100.00
7333;BME280;3707;43.618;25.342;2023-08-08T00:34:25;99839.13;;;18.72;100.00
7333;BME280;3707;43.618;25.342;2023-08-08T00:36:51;99874.31;;;19.05;100.00
7333;BME280;3707;43.618;25.342;2023-08-08T00:39:19;99863.53;;;19.15;100.00
7333;BME280;3707;43.618;25.342;2023-08-08T00:41:46;99853.38;;;19.00;100.00
7333;BME280;3707;43.618;25.342;2023-08-08T00:44:13;99869.84;;;19.08;100.00
7333;BME280;3707;43.618;25.342;2023-08-08T00:46:40;99860.22;;;19.07;100.00
7333;BME280;3707;43.618;25.342;2023-08-08T00:49:07;99897.34;;;18.92;100.00
7333;BME280;3707;43.618;25.342;2023-08-08T00:51:34;99888.63;;;18.90;100.00
7333;BME280;3707;43.618;25.342;2023-08-08T00:54:01;99913.41;;;18.77;100.00
7333;BME280;3707;43.618;25.342;2023-08-08T00:56:30;99896.34;;;18.98;100.00
7333;BME280;3707;43.618;25.342;2023-08-08T00:58:58;99908.00;;;18.86;100.00
7333;BME280;3707;43.618;25.342;2023-08-08T01:01:25;99925.28;;;18.55;100.00
7333;BME280;3707;43.618;25.342;2023-08-08T01:03:52;99932.34;;;18.51;100.00
7333;BME280;3707;43.618;25.342;2023-08-08T01:06:23;99942.88;;;18.51;100.00
7333;BME280;3707;43.618;25.342;2023-08-08T01:08:56;99948.22;;;18.44;100.00
7333;BME280;3707;43.618;25.342;2023-08-08T01:11:25;99953.69;;;18.33;100.00
7333;BME280;3707;43.618;25.342;2023-08-08T01:13:55;99863.53;;;17.88;100.00
7333;BME280;3707;43.618;25.342;2023-08-08T01:16:24;99951.25;;;18.21;100.00
7333;BME280;3707;43.618;25.342;2023-08-08T01:18:55;99940.97;;;18.10;100.00
7333;BME280;3707;43.618;25.342;2023-08-08T01:21:23;99949.00;;;18.01;100.00
7333;BME280;3707;43.618;25.342;2023-08-08T01:23:53;99941.06;;;18.04;100.00
7333;BME280;3707;43.618;25.342;2023-08-08T01:26:24;99946.41;;;17.98;100.00
7333;BME280;3707;43.618;25.342;2023-08-08T01:28:53;99927.41;;;17.84;100.00
7333;BME280;3707;43.618;25.342;2023-08-08T01:31:20;99954.25;;;18.01;100.00
7333;BME280;3707;43.618;25.342;2023-08-08T01:33:47;99923.97;;;17.82;100.00
7333;BME280;3707;43.618;25.342;2023-08-08T01:36:22;99935.16;;;17.92;100.00
7333;BME280;3707;43.618;25.342;2023-08-08T01:38:52;99942.28;;;17.85;100.00
7333;BME280;3707;43.618;25.342;2023-08-08T01:41:21;99941.38;;;17.86;100.00
7333;BME280;3707;43.618;25.342;2023-08-08T01:43:50;99941.16;;;17.98;100.00
7333;BME280;3707;43.618;25.342;2023-08-08T01:46:17;99940.44;;;17.90;100.00
7333;BME280;3707;43.618;25.342;2023-08-08T01:48:45;99924.78;;;17.84;100.00
7333;BME280;3707;43.618;25.342;2023-08-08T01:51:12;99910.16;;;17.71;100.00
7333;BME280;3707;43.618;25.342;2023-08-08T01:53:39;99937.72;;;17.95;100.00
7333;BME280;3707;43.618;25.342;2023-08-08T01:56:05;99924.84;;;17.81;100.00
7333;BME280;3707;43.618;25.342;2023-08-08T01:58:32;99885.75;;;17.66;100.00
7333;BME280;3707;43.618;25.342;2023-08-08T02:01:00;99928.03;;;17.98;100.00
7333;BME280;3707;43.618;25.342;2023-08-08T02:03:27;99923.91;;;17.85;100.00
7333;BME280;3707;43.618;25.342;2023-08-08T02:05:54;99926.53;;;17.85;100.00
7333;BME280;3707;43.618;25.342;2023-08-08T02:08:21;99900.38;;;17.80;100.00
7333;BME280;3707;43.618;25.342;2023-08-08T02:10:47;99917.47;;;18.03;100.00
7333;BME280;3707;43.618;25.342;2023-08-08T02:13:14;99932.13;;;18.14;100.00
7333;BME280;3707;43.618;25.342;2023-08-08T02:15:41;99913.34;;;17.88;100.00
7333;BME280;3707;43.618;25.342;2023-08-08T02:18:09;99922.72;;;18.04;100.00
7333;BME280;3707;43.618;25.342;2023-08-08T02:20:36;99917.53;;;18.00;100.00
7333;BME280;3707;43.618;25.342;2023-08-08T02:23:03;99927.09;;;18.04;100.00
7333;BME280;3707;43.618;25.342;2023-08-08T02:25:30;99933.28;;;17.98;100.00
7333;BME280;3707;43.618;25.342;2023-08-08T02:27:57;99936.00;;;17.94;100.00
7333;BME280;3707;43.618;25.342;2023-08-08T02:30:24;99917.78;;;17.84;100.00
7333;BME280;3707;43.618;25.342;2023-08-08T02:32:50;99948.19;;;17.98;100.00
7333;BME280;3707;43.618;25.342;2023-08-08T02:35:19;99948.03;;;18.05;100.00
7333;BME280;3707;43.618;25.342;2023-08-08T02:37:45;99948.09;;;18.02;100.00
7333;BME280;3707;43.618;25.342;2023-08-08T02:40:12;99958.66;;;17.99;100.00
7333;BME280;3707;43.618;25.342;2023-08-08T02:42:39;99969.00;;;18.08;100.00
7333;BME280;3707;43.618;25.342;2023-08-08T02:45:07;99975.94;;;18.09;100.00
7333;BME280;3707;43.618;25.342;2023-08-08T02:47:33;99959.69;;;17.89;100.00
7333;BME280;3707;43.618;25.342;2023-08-08T02:50:00;99962.88;;;18.08;100.00
7333;BME280;3707;43.618;25.342;2023-08-08T02:52:28;99960.13;;;18.15;100.00
7333;BME280;3707;43.618;25.342;2023-08-08T02:54:55;99876.25;;;17.60;100.00
7333;BME280;3707;43.618;25.342;2023-08-08T02:57:22;99974.94;;;18.18;100.00
7333;BME280;3707;43.618;25.342;2023-08-08T02:59:49;99987.31;;;18.10;100.00
7333;BME280;3707;43.618;25.342;2023-08-08T03:02:15;99998.81;;;18.04;100.00
7333;BME280;3707;43.618;25.342;2023-08-08T03:04:42;99991.06;;;17.97;100.00
7333;BME280;3707;43.618;25.342;2023-08-08T03:07:09;100005.81;;;18.02;100.00
7333;BME280;3707;43.618;25.342;2023-08-08T03:09:37;100014.38;;;18.13;100.00
7333;BME280;3707;43.618;25.342;2023-08-08T03:12:05;100003.19;;;18.02;100.00
7333;BME280;3707;43.618;25.342;2023-08-08T03:14:32;99994.69;;;17.88;100.00
7333;BME280;3707;43.618;25.342;2023-08-08T03:16:59;99997.19;;;17.96;100.00
7333;BME280;3707;43.618;25.342;2023-08-08T03:19:26;99974.59;;;17.87;100.00
7333;BME280;3707;43.618;25.342;2023-08-08T03:21:53;99985.00;;;17.93;100.00
7333;BME280;3707;43.618;25.342;2023-08-08T03:24:19;99997.22;;;17.94;100.00
7333;BME280;3707;43.618;25.342;2023-08-08T03:26:48;99992.81;;;17.96;100.00
7333;BME280;3707;43.618;25.342;2023-08-08T03:29:14;99992.00;;;17.91;100.00
7333;BME280;3707;43.618;25.342;2023-08-08T03:31:41;99996.28;;;17.97;100.00
7333;BME280;3707;43.618;25.342;2023-08-08T03:34:08;99997.34;;;17.87;100.00
7333;BME280;3707;43.618;25.342;2023-08-08T03:36:35;100022.47;;;18.01;100.00
7333;BME280;3707;43.618;25.342;2023-08-08T03:39:02;100024.13;;;18.05;100.00
7333;BME280;3707;43.618;25.342;2023-08-08T03:41:29;100033.44;;;18.26;100.00
7333;BME280;3707;43.618;25.342;2023-08-08T03:43:57;100039.25;;;18.43;100.00
7333;BME280;3707;43.618;25.342;2023-08-08T03:46:24;100041.81;;;18.45;100.00
7333;BME280;3707;43.618;25.342;2023-08-08T03:48:50;100032.63;;;18.19;100.00
7333;BME280;3707;43.618;25.342;2023-08-08T03:51:17;100003.19;;;18.04;100.00
7333;BME280;3707;43.618;25.342;2023-08-08T03:53:44;100008.44;;;18.02;100.00
7333;BME280;3707;43.618;25.342;2023-08-08T03:56:11;100045.88;;;18.13;100.00
7333;BME280;3707;43.618;25.342;2023-08-08T03:58:37;99995.47;;;17.93;100.00
7333;BME280;3707;43.618;25.342;2023-08-08T04:01:06;100042.25;;;18.20;100.00
7333;BME280;3707;43.618;25.342;2023-08-08T04:03:32;100052.75;;;18.20;100.00
7333;BME280;3707;43.618;25.342;2023-08-08T04:05:59;100058.06;;;18.17;100.00
7333;BME280;3707;43.618;25.342;2023-08-08T04:08:26;100051.00;;;18.19;100.00
7333;BME280;3707;43.618;25.342;2023-08-08T04:10:53;100047.31;;;18.32;100.00
7333;BME280;3707;43.618;25.342;2023-08-08T04:13:20;100052.75;;;18.22;100.00
7333;BME280;3707;43.618;25.342;2023-08-08T04:15:47;100057.63;;;18.42;100.00
7333;BME280;3707;43.618;25.342;2023-08-08T04:18:15;100041.13;;;18.37;100.00
7333;BME280;3707;43.618;25.342;2023-08-08T04:20:42;100057.06;;;18.23;100.00
7333;BME280;3707;43.618;25.342;2023-08-08T04:23:09;100025.03;;;18.04;100.00
7333;BME280;3707;43.618;25.342;2023-08-08T04:25:36;100036.00;;;18.29;100.00
7333;BME280;3707;43.618;25.342;2023-08-08T04:28:03;100044.75;;;18.26;100.00
7333;BME280;3707;43.618;25.342;2023-08-08T04:30:30;100045.63;;;18.27;100.00
7333;BME280;3707;43.618;25.342;2023-08-08T04:32:57;100043.75;;;18.33;100.00
7333;BME280;3707;43.618;25.342;2023-08-08T04:35:25;100047.06;;;18.48;100.00
7333;BME280;3707;43.618;25.342;2023-08-08T04:37:52;100058.41;;;18.51;100.00
7333;BME280;3707;43.618;25.342;2023-08-08T04:40:18;100040.94;;;18.46;100.00
7333;BME280;3707;43.618;25.342;2023-08-08T04:42:45;100069.66;;;18.58;100.00
7333;BME280;3707;43.618;25.342;2023-08-08T04:45:12;100063.63;;;18.50;100.00
7333;BME280;3707;43.618;25.342;2023-08-08T04:47:40;100071.16;;;18.71;100.00
7333;BME280;3707;43.618;25.342;2023-08-08T04:50:07;100077.28;;;18.71;100.00
7333;BME280;3707;43.618;25.342;2023-08-08T04:52:35;100075.47;;;18.75;100.00
7333;BME280;3707;43.618;25.342;2023-08-08T04:55:03;100008.00;;;18.26;100.00
7333;BME280;3707;43.618;25.342;2023-08-08T04:57:30;100073.03;;;18.64;100.00
7333;BME280;3707;43.618;25.342;2023-08-08T04:59:56;100058.16;;;18.65;100.00
7333;BME280;3707;43.618;25.342;2023-08-08T05:02:26;100074.38;;;18.87;100.00
7333;BME280;3707;43.618;25.342;2023-08-08T05:04:53;100079.78;;;18.77;100.00
7333;BME280;3707;43.618;25.342;2023-08-08T05:07:20;100085.03;;;18.77;100.00
7333;BME280;3707;43.618;25.342;2023-08-08T05:09:48;100084.63;;;19.00;100.00
7333;BME280;3707;43.618;25.342;2023-08-08T05:12:15;100057.84;;;18.80;100.00
7333;BME280;3707;43.618;25.342;2023-08-08T05:14:41;100095.19;;;18.97;100.00
7333;BME280;3707;43.618;25.342;2023-08-08T05:17:08;100086.75;;;18.80;100.00
7333;BME280;3707;43.618;25.342;2023-08-08T05:19:35;100089.22;;;18.89;100.00
7333;BME280;3707;43.618;25.342;2023-08-08T05:22:02;100124.13;;;18.96;100.00
7333;BME280;3707;43.618;25.342;2023-08-08T05:24:28;100136.25;;;19.03;100.00
7333;BME280;3707;43.618;25.342;2023-08-08T05:26:57;100123.91;;;19.08;100.00
7333;BME280;3707;43.618;25.342;2023-08-08T05:29:23;100106.38;;;18.61;100.00
7333;BME280;3707;43.618;25.342;2023-08-08T05:31:50;100084.56;;;18.56;100.00
7333;BME280;3707;43.618;25.342;2023-08-08T05:34:17;100087.25;;;18.53;100.00
7333;BME280;3707;43.618;25.342;2023-08-08T05:36:44;100103.97;;;18.46;100.00
7333;BME280;3707;43.618;25.342;2023-08-08T05:39:10;100125.13;;;18.35;100.00
7333;BME280;3707;43.618;25.342;2023-08-08T05:41:37;100126.81;;;18.39;100.00
7333;BME280;3707;43.618;25.342;2023-08-08T05:44:05;100131.94;;;18.51;100.00
7333;BME280;3707;43.618;25.342;2023-08-08T05:46:32;100110.44;;;18.23;100.00
7333;BME280;3707;43.618;25.342;2023-08-08T05:48:59;100127.81;;;18.30;100.00
7333;BME280;3707;43.618;25.342;2023-08-08T05:51:26;100133.00;;;18.37;100.00
7333;BME280;3707;43.618;25.342;2023-08-08T05:53:54;100147.06;;;18.32;100.00
7333;BME280;3707;43.618;25.342;2023-08-08T05:56:21;100167.13;;;18.35;100.00
7333;BME280;3707;43.618;25.342;2023-08-08T05:58:48;100179.41;;;18.34;100.00
7333;BME280;3707;43.618;25.342;2023-08-08T06:01:16;100187.03;;;18.53;100.00
7333;BME280;3707;43.618;25.342;2023-08-08T06:03:43;100194.06;;;18.49;100.00
7333;BME280;3707;43.618;25.342;2023-08-08T06:06:09;100182.88;;;18.37;100.00
7333;BME280;3707;43.618;25.342;2023-08-08T06:08:36;100182.72;;;18.47;100.00
7333;BME280;3707;43.618;25.342;2023-08-08T06:11:03;100183.75;;;18.36;100.00
7333;BME280;3707;43.618;25.342;2023-08-08T06:13:30;100191.75;;;18.29;100.00
7333;BME280;3707;43.618;25.342;2023-08-08T06:15:56;100192.66;;;18.25;100.00
7333;BME280;3707;43.618;25.342;2023-08-08T06:18:25;100193.50;;;18.29;100.00
7333;BME280;3707;43.618;25.342;2023-08-08T06:20:51;100191.75;;;18.26;100.00
7333;BME280;3707;43.618;25.342;2023-08-08T06:23:18;100168.44;;;18.08;100.00
7333;BME280;3707;43.618;25.342;2023-08-08T06:25:45;100183.06;;;18.23;100.00
7333;BME280;3707;43.618;25.342;2023-08-08T06:28:12;100099.06;;;17.65;100.00
7333;BME280;3707;43.618;25.342;2023-08-08T06:30:39;100150.16;;;18.01;100.00
7333;BME280;3707;43.618;25.342;2023-08-08T06:33:05;100151.09;;;17.95;100.00
7333;BME280;3707;43.618;25.342;2023-08-08T06:35:34;100175.19;;;18.24;100.00
7333;BME280;3707;43.618;25.342;2023-08-08T06:38:00;100174.50;;;18.09;100.00
7333;BME280;3707;43.618;25.342;2023-08-08T06:40:28;100180.69;;;18.06;100.00
7333;BME280;3707;43.618;25.342;2023-08-08T06:42:55;100181.59;;;18.02;100.00
7333;BME280;3707;43.618;25.342;2023-08-08T06:45:21;100215.38;;;18.26;100.00
7333;BME280;3707;43.618;25.342;2023-08-08T06:47:48;100218.72;;;18.39;100.00
7333;BME280;3707;43.618;25.342;2023-08-08T06:50:15;100200.16;;;18.53;100.00
7333;BME280;3707;43.618;25.342;2023-08-08T06:52:44;100211.31;;;18.67;100.00
7333;BME280;3707;43.618;25.342;2023-08-08T06:55:10;100194.69;;;18.66;100.00
7333;BME280;3707;43.618;25.342;2023-08-08T06:57:37;100191.63;;;18.92;100.00
7333;BME280;3707;43.618;25.342;2023-08-08T07:00:05;100202.47;;;19.23;100.00
7333;BME280;3707;43.618;25.342;2023-08-08T07:02:33;100208.22;;;19.45;100.00
7333;BME280;3707;43.618;25.342;2023-08-08T07:05:00;100189.72;;;19.51;100.00
7333;BME280;3707;43.618;25.342;2023-08-08T07:07:29;100200.81;;;19.65;100.00
7333;BME280;3707;43.618;25.342;2023-08-08T07:09:57;100205.44;;;19.95;100.00
7333;BME280;3707;43.618;25.342;2023-08-08T07:12:24;100208.34;;;19.83;100.00
7333;BME280;3707;43.618;25.342;2023-08-08T07:14:51;100218.31;;;19.67;100.00
7333;BME280;3707;43.618;25.342;2023-08-08T07:17:18;100221.59;;;19.77;100.00
7333;BME280;3707;43.618;25.342;2023-08-08T07:19:45;100214.66;;;19.74;100.00
7333;BME280;3707;43.618;25.342;2023-08-08T07:22:12;100215.97;;;19.52;100.00
7333;BME280;3707;43.618;25.342;2023-08-08T07:24:38;100194.19;;;19.44;100.00
7333;BME280;3707;43.618;25.342;2023-08-08T07:27:07;100199.31;;;19.52;100.00
7333;BME280;3707;43.618;25.342;2023-08-08T07:29:33;100200.22;;;19.51;100.00
7333;BME280;3707;43.618;25.342;2023-08-08T07:32:03;100200.03;;;19.60;100.00
7333;BME280;3707;43.618;25.342;2023-08-08T07:34:30;100191.47;;;19.50;100.00
7333;BME280;3707;43.618;25.342;2023-08-08T07:36:57;100185.84;;;19.68;100.00
7333;BME280;3707;43.618;25.342;2023-08-08T07:39:24;100199.28;;;19.96;100.00
7333;BME280;3707;43.618;25.342;2023-08-08T07:41:51;100192.59;;;20.21;100.00
7333;BME280;3707;43.618;25.342;2023-08-08T07:44:20;100185.66;;;20.17;100.00
7333;BME280;3707;43.618;25.342;2023-08-08T07:46:47;100212.31;;;20.02;100.00
7333;BME280;3707;43.618;25.342;2023-08-08T07:49:13;100211.44;;;20.02;100.00
7333;BME280;3707;43.618;25.342;2023-08-08T07:51:40;100207.69;;;20.13;100.00
7333;BME280;3707;43.618;25.342;2023-08-08T07:54:07;100205.66;;;20.26;100.00
7333;BME280;3707;43.618;25.342;2023-08-08T08:34:00;100220.47;;;21.70;100.00
7333;BME280;3707;43.618;25.342;2023-08-08T08:36:27;100230.63;;;21.54;100.00
7333;BME280;3707;43.618;25.342;2023-08-08T08:38:53;100216.59;;;21.52;96.64
7333;BME280;3707;43.618;25.342;2023-08-08T08:41:28;100224.75;;;21.75;100.00
7333;BME280;3707;43.618;25.342;2023-08-08T08:43:55;100225.44;;;21.82;100.00
7333;BME280;3707;43.618;25.342;2023-08-08T08:46:22;100224.28;;;21.92;100.00
7333;BME280;3707;43.618;25.342;2023-08-08T08:48:50;100221.72;;;21.89;100.00
7333;BME280;3707;43.618;25.342;2023-08-08T08:51:19;100191.50;;;21.99;100.00
7333;BME280;3707;43.618;25.342;2023-08-08T08:53:46;100211.69;;;22.30;100.00
7333;BME280;3707;43.618;25.342;2023-08-08T08:56:14;100215.59;;;22.46;96.85
7333;BME280;3707;43.618;25.342;2023-08-08T08:58:42;100195.78;;;22.33;95.29
7333;BME280;3707;43.618;25.342;2023-08-08T09:01:09;100190.16;;;22.43;96.51
7333;BME280;3707;43.618;25.342;2023-08-08T09:03:36;100216.19;;;22.83;95.16
7333;BME280;3707;43.618;25.342;2023-08-08T09:06:04;100228.13;;;22.68;92.91
7333;BME280;3707;43.618;25.342;2023-08-08T09:08:32;100227.69;;;22.54;89.80
7333;BME280;3707;43.618;25.342;2023-08-08T09:11:00;100220.69;;;22.52;89.66
7333;BME280;3707;43.618;25.342;2023-08-08T09:13:26;100214.97;;;22.65;91.07
7333;BME280;3707;43.618;25.342;2023-08-08T09:15:53;100224.63;;;22.68;86.00
7333;BME280;3707;43.618;25.342;2023-08-08T09:18:23;100208.09;;;22.88;85.48
7333;BME280;3707;43.618;25.342;2023-08-08T09:20:50;100211.19;;;22.74;84.20
7333;BME280;3707;43.618;25.342;2023-08-08T09:23:17;100207.03;;;22.67;85.93
7333;BME280;3707;43.618;25.342;2023-08-08T09:25:45;100207.41;;;22.83;83.91
7333;BME280;3707;43.618;25.342;2023-08-08T09:28:12;100208.66;;;22.97;83.63
7333;BME280;3707;43.618;25.342;2023-08-08T09:30:38;100195.34;;;23.00;83.35
7333;BME280;3707;43.618;25.342;2023-08-08T09:33:07;100201.06;;;23.13;82.53
7333;BME280;3707;43.618;25.342;2023-08-08T09:35:34;100207.88;;;23.20;79.82
7333;BME280;3707;43.618;25.342;2023-08-08T09:38:00;100219.72;;;23.08;75.45
7333;BME280;3707;43.618;25.342;2023-08-08T09:40:27;100191.47;;;23.10;77.93
7333;BME280;3707;43.618;25.342;2023-08-08T09:42:56;100182.28;;;23.20;74.53
7333;BME280;3707;43.618;25.342;2023-08-08T09:45:24;100219.47;;;23.41;71.75
7333;BME280;3707;43.618;25.342;2023-08-08T09:47:51;100206.91;;;23.22;69.78
7333;BME280;3707;43.618;25.342;2023-08-08T09:50:19;100214.91;;;23.21;70.00
7333;BME280;3707;43.618;25.342;2023-08-08T09:52:46;100209.75;;;23.43;73.20
7333;BME280;3707;43.618;25.342;2023-08-08T09:55:13;100209.75;;;23.43;64.49
7333;BME280;3707;43.618;25.342;2023-08-08T09:57:41;100174.31;;;23.22;65.91
7333;BME280;3707;43.618;25.342;2023-08-08T10:00:11;100204.47;;;23.43;66.28
7333;BME280;3707;43.618;25.342;2023-08-08T10:02:42;100214.06;;;23.70;68.83
7333;BME280;3707;43.618;25.342;2023-08-08T10:05:09;100187.50;;;23.48;63.99
7333;BME280;3707;43.618;25.342;2023-08-08T10:07:40;100217.84;;;23.63;63.95
7333;BME280;3707;43.618;25.342;2023-08-08T10:10:08;100215.44;;;23.57;67.87
7333;BME280;3707;43.618;25.342;2023-08-08T10:12:36;100199.56;;;23.31;68.06
7333;BME280;3707;43.618;25.342;2023-08-08T10:15:06;100201.59;;;23.49;68.97
7333;BME280;3707;43.618;25.342;2023-08-08T10:17:36;100205.34;;;23.66;71.43
7333;BME280;3707;43.618;25.342;2023-08-08T10:20:05;100223.84;;;23.91;70.16
7333;BME280;3707;43.618;25.342;2023-08-08T10:22:37;100225.81;;;24.09;70.37
7333;BME280;3707;43.618;25.342;2023-08-08T10:25:05;100212.81;;;24.27;71.80
7333;BME280;3707;43.618;25.342;2023-08-08T10:27:32;100221.28;;;24.36;70.38
7333;BME280;3707;43.618;25.342;2023-08-08T10:30:04;100194.75;;;24.14;70.91
7333;BME280;3707;43.618;25.342;2023-08-08T10:32:40;100212.13;;;24.22;70.82
7333;BME280;3707;43.618;25.342;2023-08-08T10:35:08;100211.81;;;24.06;70.80
7333;BME280;3707;43.618;25.342;2023-08-08T10:37:36;100203.50;;;23.93;70.54
7333;BME280;3707;43.618;25.342;2023-08-08T10:40:04;100202.91;;;23.85;72.22
7333;BME280;3707;43.618;25.342;2023-08-08T10:42:33;100210.69;;;23.90;74.09
7333;BME280;3707;43.618;25.342;2023-08-08T10:45:09;100179.66;;;23.93;73.70
7333;BME280;3707;43.618;25.342;2023-08-08T10:47:37;100184.19;;;24.13;72.56
7333;BME280;3707;43.618;25.342;2023-08-08T10:50:06;100205.41;;;24.13;68.44
7333;BME280;3707;43.618;25.342;2023-08-08T10:52:38;100202.53;;;23.94;69.01
7333;BME280;3707;43.618;25.342;2023-08-08T10:55:06;100193.84;;;23.91;69.53
7333;BME280;3707;43.618;25.342;2023-08-08T10:57:53;100205.41;;;24.11;70.95
7333;BME280;3707;43.618;25.342;2023-08-08T11:00:23;100192.28;;;24.08;69.10
7333;BME280;3707;43.618;25.342;2023-08-08T11:02:51;100166.16;;;23.99;66.35
7333;BME280;3707;43.618;25.342;2023-08-08T11:05:19;100180.69;;;23.89;66.55
7333;BME280;3707;43.618;25.342;2023-08-08T11:07:46;100199.16;;;23.91;68.15
7333;BME280;3707;43.618;25.342;2023-08-08T11:10:14;100199.78;;;23.97;64.29
7333;BME280;3707;43.618;25.342;2023-08-08T11:12:40;100193.00;;;24.13;66.28
7333;BME280;3707;43.618;25.342;2023-08-08T11:15:08;100206.03;;;24.19;63.25
7333;BME280;3707;43.618;25.342;2023-08-08T11:17:36;100200.44;;;24.49;60.97
7333;BME280;3707;43.618;25.342;2023-08-08T11:20:03;100210.75;;;24.56;62.53
7333;BME280;3707;43.618;25.342;2023-08-08T11:22:32;100207.19;;;24.57;66.58
7333;BME280;3707;43.618;25.342;2023-08-08T11:24:58;100201.31;;;24.71;70.66
7333;BME280;3707;43.618;25.342;2023-08-08T11:27:28;100198.97;;;24.63;67.87
7333;BME280;3707;43.618;25.342;2023-08-08T11:29:56;100191.78;;;24.44;64.03
7333;BME280;3707;43.618;25.342;2023-08-08T11:32:23;100211.34;;;24.41;63.41
7333;BME280;3707;43.618;25.342;2023-08-08T11:34:50;100205.75;;;24.71;64.87
7333;BME280;3707;43.618;25.342;2023-08-08T11:37:18;100204.50;;;24.79;61.88
7333;BME280;3707;43.618;25.342;2023-08-08T11:39:47;100205.69;;;24.72;60.33
7333;BME280;3707;43.618;25.342;2023-08-08T11:42:14;100206.66;;;24.69;61.38
7333;BME280;3707;43.618;25.342;2023-08-08T11:44:41;100206.63;;;24.71;62.54
7333;BME280;3707;43.618;25.342;2023-08-08T11:47:08;100198.84;;;24.88;62.19
7333;BME280;3707;43.618;25.342;2023-08-08T11:49:40;100191.84;;;25.07;63.78
7333;BME280;3707;43.618;25.342;2023-08-08T11:52:07;100192.91;;;25.03;62.46
7333;BME280;3707;43.618;25.342;2023-08-08T11:54:36;100190.38;;;25.21;58.55
7333;BME280;3707;43.618;25.342;2023-08-08T11:57:04;100183.53;;;25.15;56.65
7333;BME280;3707;43.618;25.342;2023-08-08T11:59:31;100161.44;;;24.94;55.40
7333;BME280;3707;43.618;25.342;2023-08-08T12:01:58;100189.25;;;25.06;55.14
7333;BME280;3707;43.618;25.342;2023-08-08T12:04:25;100186.59;;;25.26;56.46
7333;BME280;3707;43.618;25.342;2023-08-08T12:07:00;100185.53;;;25.30;56.06
7333;BME280;3707;43.618;25.342;2023-08-08T12:09:29;100146.25;;;24.98;54.47
7333;BME280;3707;43.618;25.342;2023-08-08T12:11:59;100184.41;;;25.36;56.00
7333;BME280;3707;43.618;25.342;2023-08-08T12:14:27;100179.91;;;25.38;58.27
7333;BME280;3707;43.618;25.342;2023-08-08T12:16:54;100158.78;;;25.35;55.70
7333;BME280;3707;43.618;25.342;2023-08-08T12:19:23;100182.28;;;25.64;55.15
7333;BME280;3707;43.618;25.342;2023-08-08T12:21:50;100186.09;;;25.77;55.43
7333;BME280;3707;43.618;25.342;2023-08-08T12:24:17;100176.91;;;25.65;55.86
7333;BME280;3707;43.618;25.342;2023-08-08T12:26:44;100172.69;;;25.80;55.67
7333;BME280;3707;43.618;25.342;2023-08-08T12:29:11;100172.69;;;25.80;54.24
7333;BME280;3707;43.618;25.342;2023-08-08T12:31:40;100173.91;;;25.92;55.60
7333;BME280;3707;43.618;25.342;2023-08-08T12:34:07;100168.16;;;26.01;56.19
7333;BME280;3707;43.618;25.342;2023-08-08T12:36:34;100166.25;;;25.86;56.40
7333;BME280;3707;43.618;25.342;2023-08-08T12:39:01;100160.44;;;25.96;55.11
7333;BME280;3707;43.618;25.342;2023-08-08T12:41:27;100173.72;;;25.96;55.31
7333;BME280;3707;43.618;25.342;2023-08-08T12:43:56;100161.78;;;25.86;55.51
7333;BME280;3707;43.618;25.342;2023-08-08T12:46:22;100155.53;;;25.87;56.47
7333;BME280;3707;43.618;25.342;2023-08-08T12:48:50;100167.94;;;25.68;55.91
7333;BME280;3707;43.618;25.342;2023-08-08T12:51:18;100160.06;;;25.46;56.36
7333;BME280;3707;43.618;25.342;2023-08-08T12:53:44;100141.72;;;25.60;59.77
7333;BME280;3707;43.618;25.342;2023-08-08T12:56:11;100129.94;;;25.66;55.79
7333;BME280;3707;43.618;25.342;2023-08-08T12:58:38;100142.16;;;25.70;55.41
7333;BME280;3707;43.618;25.342;2023-08-08T13:01:06;100155.25;;;25.93;53.33
7333;BME280;3707;43.618;25.342;2023-08-08T13:03:33;100163.56;;;26.04;55.20
7333;BME280;3707;43.618;25.342;2023-08-08T13:06:02;100130.13;;;26.00;54.34
7333;BME280;3707;43.618;25.342;2023-08-08T13:08:29;100156.09;;;26.12;56.63
7333;BME280;3707;43.618;25.342;2023-08-08T13:10:56;100150.38;;;26.22;53.53
7333;BME280;3707;43.618;25.342;2023-08-08T13:13:22;100126.09;;;26.10;53.29
7333;BME280;3707;43.618;25.342;2023-08-08T13:15:51;100140.00;;;26.15;54.11
7333;BME280;3707;43.618;25.342;2023-08-08T13:18:18;100149.47;;;26.40;52.66
7333;BME280;3707;43.618;25.342;2023-08-08T13:20:45;100145.91;;;26.58;52.42
7333;BME280;3707;43.618;25.342;2023-08-08T13:23:13;100147.13;;;26.34;51.53
7333;BME280;3707;43.618;25.342;2023-08-08T13:25:40;100130.94;;;26.38;52.84
7333;BME280;3707;43.618;25.342;2023-08-08T13:28:07;100152.75;;;26.63;51.37
7333;BME280;3707;43.618;25.342;2023-08-08T13:30:34;100154.06;;;26.36;50.71
7333;BME280;3707;43.618;25.342;2023-08-08T13:33:01;100150.66;;;26.34;53.15
7333;BME280;3707;43.618;25.342;2023-08-08T13:35:28;100147.06;;;26.35;52.61